createdAt,value
2018-07-22T00:01:38.198Z,94559.41
2018-07-22T00:04:07.978Z,94553.74
2018-07-22T00:06:37.872Z,94548.32
2018-07-22T00:09:10.266Z,94551.30
2018-07-22T00:11:40.055Z,94539.75
2018-07-22T00:14:09.791Z,94548.64
2018-07-22T00:16:39.339Z,94545.52
2018-07-22T00:19:08.999Z,94545.38
2018-07-22T00:21:38.865Z,94545.77
2018-07-22T00:24:08.976Z,94545.05
2018-07-22T00:26:38.801Z,94544.79
2018-07-22T00:29:08.601Z,94545.45
2018-07-22T00:31:38.499Z,94535.59
2018-07-22T00:34:08.110Z,94541.99
2018-07-22T00:36:37.938Z,94544.18
2018-07-22T00:39:09.931Z,94539.68
2018-07-22T00:41:39.855Z,94548.57
2018-07-22T00:44:10.361Z,94542.20
2018-07-22T00:46:39.974Z,94544.97
2018-07-22T00:49:09.509Z,94543.86
2018-07-22T00:51:39.068Z,94541.28
2018-07-22T00:54:08.871Z,94543.48
2018-07-22T00:56:38.734Z,94538.19
2018-07-22T00:59:08.652Z,94541.34
2018-07-22T01:01:38.708Z,94536.32
2018-07-22T01:04:08.598Z,94537.67
2018-07-22T01:06:38.294Z,94538.84
2018-07-22T01:09:10.087Z,94538.52
2018-07-22T01:11:40.266Z,94536.59
2018-07-22T01:14:10.164Z,94541.23
2018-07-22T01:16:39.875Z,94546.55
2018-07-22T01:19:09.995Z,94540.33
2018-07-22T01:21:39.619Z,94542.48
2018-07-22T01:24:09.256Z,94542.39
2018-07-22T01:26:38.758Z,94540.62
2018-07-22T01:29:08.678Z,94543.16
2018-07-22T01:31:38.258Z,94538.47
2018-07-22T01:34:08.354Z,94534.59
2018-07-22T01:36:38.206Z,94532.39
2018-07-22T01:39:09.316Z,94530.39
2018-07-22T01:41:39.512Z,94524.78
2018-07-22T01:44:09.543Z,94522.66
2018-07-22T01:46:39.595Z,94517.41
2018-07-22T01:49:09.333Z,94515.98
2018-07-22T01:51:39.165Z,94518.24
2018-07-22T01:54:08.712Z,94508.97
2018-07-22T01:56:38.381Z,94518.72
2018-07-22T01:59:08.031Z,94516.46
2018-07-22T02:01:37.752Z,94520.39
2018-07-22T02:04:07.658Z,94527.23
2018-07-22T02:06:37.607Z,94526.31
2018-07-22T02:09:09.126Z,94532.82
2018-07-22T02:11:38.982Z,94522.50
2018-07-22T02:14:09.056Z,94522.40
2018-07-22T02:16:38.829Z,94520.55
2018-07-22T02:19:08.489Z,94520.61
2018-07-22T02:21:38.441Z,94513.73
2018-07-22T02:24:08.514Z,94520.26
2018-07-22T02:26:38.015Z,94521.41
2018-07-22T02:29:07.649Z,94519.03
2018-07-22T02:31:37.259Z,94520.26
2018-07-22T02:34:07.294Z,94522.44
2018-07-22T02:36:37.172Z,94521.34
2018-07-22T02:39:09.982Z,94510.73
2018-07-22T02:41:39.904Z,94519.22
2018-07-22T02:44:09.978Z,94523.23
2018-07-22T02:46:40.053Z,94521.87
2018-07-22T02:49:10.002Z,94517.44
2018-07-22T02:51:40.102Z,94519.89
2018-07-22T02:54:09.854Z,94519.17
2018-07-22T02:56:39.607Z,94518.63
2018-07-22T02:59:09.620Z,94519.20
2018-07-22T03:01:39.522Z,94521.72
2018-07-22T03:04:09.706Z,94526.19
2018-07-22T03:06:39.474Z,94512.63
2018-07-22T03:09:10.310Z,94518.81
2018-07-22T03:11:39.927Z,94518.80
2018-07-22T03:14:09.818Z,94522.19
2018-07-22T03:16:39.607Z,94524.58
2018-07-22T03:19:09.251Z,94526.28
2018-07-22T03:21:39.145Z,94521.80
2018-07-22T03:24:08.996Z,94516.66
2018-07-22T03:26:38.863Z,94518.70
2018-07-22T03:29:08.847Z,94518.77
2018-07-22T03:31:38.470Z,94512.55
2018-07-22T03:34:08.098Z,94513.97
2018-07-22T03:36:37.713Z,94507.27
2018-07-22T03:39:09.390Z,94509.79
2018-07-22T03:41:39.822Z,94506.55
2018-07-22T03:44:10.151Z,94500.64
2018-07-22T03:46:40.080Z,94501.84
2018-07-22T03:49:09.859Z,94500.11
2018-07-22T03:51:39.674Z,94491.58
2018-07-22T03:54:09.631Z,94489.57
2018-07-22T03:56:39.365Z,94496.70
2018-07-22T03:59:09.645Z,94501.20
2018-07-22T04:01:39.319Z,94505.61
2018-07-22T04:04:09.316Z,94507.33
2018-07-22T04:06:38.902Z,94505.02
2018-07-22T04:09:09.703Z,94510.89
2018-07-22T04:11:39.768Z,94509.73
2018-07-22T04:14:09.414Z,94505.65
2018-07-22T04:16:39.263Z,94499.30
2018-07-22T04:19:08.846Z,94504.27
2018-07-22T04:21:38.629Z,94505.47
2018-07-22T04:24:08.499Z,94504.22
2018-07-22T04:26:38.474Z,94501.61
2018-07-22T04:29:08.430Z,94502.89
2018-07-22T04:31:38.483Z,94496.45
2018-07-22T04:34:08.142Z,94495.27
2018-07-22T04:36:37.668Z,94500.61
2018-07-22T04:39:09.254Z,94499.17
2018-07-22T04:41:38.940Z,94491.00
2018-07-22T04:44:08.918Z,94491.77
2018-07-22T04:46:38.450Z,94495.61
2018-07-22T04:49:08.230Z,94489.10
2018-07-22T04:51:38.185Z,94481.27
2018-07-22T04:54:07.859Z,94475.53
2018-07-22T04:56:37.772Z,94478.80
2018-07-22T04:59:07.706Z,94482.79
2018-07-22T05:01:37.705Z,94481.52
2018-07-22T05:04:07.729Z,94490.88
2018-07-22T05:06:37.378Z,94488.48
2018-07-22T05:09:10.059Z,94488.33
2018-07-22T05:11:39.725Z,94483.20
2018-07-22T05:14:09.594Z,94494.79
2018-07-22T05:16:39.363Z,94489.53
2018-07-22T05:19:08.963Z,94497.13
2018-07-22T05:21:38.691Z,94494.58
2018-07-22T05:24:08.696Z,94501.09
2018-07-22T05:26:38.384Z,94500.91
2018-07-22T05:29:08.039Z,94496.36
2018-07-22T05:31:37.817Z,94496.73
2018-07-22T05:34:07.670Z,94497.12
2018-07-22T05:36:37.476Z,94503.15
2018-07-22T05:39:09.762Z,94496.16
2018-07-22T05:41:39.461Z,94494.41
2018-07-22T05:44:08.960Z,94495.80
2018-07-22T05:46:38.939Z,94494.71
2018-07-22T05:49:08.834Z,94493.14
2018-07-22T05:51:38.814Z,94493.75
2018-07-22T05:54:08.640Z,94491.28
2018-07-22T05:56:38.332Z,94492.95
2018-07-22T05:59:08.255Z,94492.36
2018-07-22T06:01:38.049Z,94489.15
2018-07-22T06:04:07.893Z,94496.81
2018-07-22T06:06:37.527Z,94489.81
2018-07-22T06:09:09.324Z,94488.20
2018-07-22T06:11:38.828Z,94489.47
2018-07-22T06:14:08.885Z,94490.02
2018-07-22T06:16:38.563Z,94493.54
2018-07-22T06:19:08.299Z,94482.69
2018-07-22T06:21:37.859Z,94482.19
2018-07-22T06:24:07.454Z,94476.67
2018-07-22T06:26:37.293Z,94475.56
2018-07-22T06:29:07.365Z,94477.02
2018-07-22T06:31:36.979Z,94471.83
2018-07-22T06:34:07.105Z,94475.03
2018-07-22T06:36:36.853Z,94467.91
2018-07-22T06:39:09.721Z,94470.02
2018-07-22T06:41:39.688Z,94469.01
2018-07-22T06:44:09.379Z,94461.71
2018-07-22T06:46:39.080Z,94459.86
2018-07-22T06:49:08.727Z,94455.84
2018-07-22T06:51:38.698Z,94459.40
2018-07-22T06:54:08.568Z,94463.34
2018-07-22T06:56:38.478Z,94462.58
2018-07-22T06:59:08.067Z,94461.33
2018-07-22T07:01:37.784Z,94453.79
2018-07-22T07:04:07.399Z,94455.45
2018-07-22T07:06:37.276Z,94448.88
2018-07-22T07:09:10.036Z,94453.56
2018-07-22T07:11:40.247Z,94444.96
2018-07-22T07:14:10.523Z,94454.46
2018-07-22T07:16:40.732Z,94449.89
2018-07-22T07:19:10.473Z,94458.90
2018-07-22T07:21:40.497Z,94455.31
2018-07-22T07:24:10.711Z,94449.88
2018-07-22T07:26:40.970Z,94447.86
2018-07-22T07:29:10.851Z,94446.99
2018-07-22T07:31:40.777Z,94441.95
2018-07-22T07:34:10.491Z,94445.71
2018-07-22T07:36:40.195Z,94450.27
2018-07-22T07:39:12.224Z,94442.89
2018-07-22T07:41:42.287Z,94444.79
2018-07-22T07:44:12.264Z,94437.70
2018-07-22T07:46:42.056Z,94434.33
2018-07-22T07:49:12.043Z,94433.52
2018-07-22T07:51:41.605Z,94437.42
2018-07-22T07:54:11.145Z,94432.81
2018-07-22T07:56:41.022Z,94422.93
2018-07-22T07:59:11.139Z,94428.56
2018-07-22T08:01:40.734Z,94425.91
2018-07-22T08:04:10.711Z,94422.09
2018-07-22T08:06:40.667Z,94422.48
2018-07-22T08:09:11.250Z,94413.66
2018-07-22T08:11:40.989Z,94408.11
2018-07-22T08:14:10.773Z,94408.95
2018-07-22T08:16:40.698Z,94398.11
2018-07-22T08:19:10.530Z,94398.23
2018-07-22T08:21:40.691Z,94397.87
2018-07-22T08:24:10.230Z,94398.92
2018-07-22T08:26:40.060Z,94393.42
2018-07-22T08:29:28.398Z,94401.17
2018-07-22T08:31:58.482Z,94401.63
2018-07-22T08:34:28.705Z,94394.75
2018-07-22T08:36:59.272Z,94394.69
2018-07-22T08:39:30.013Z,94390.83
2018-07-22T08:42:00.189Z,94387.77
2018-07-22T08:44:30.735Z,94384.80
2018-07-22T08:47:00.873Z,94379.84
2018-07-22T08:49:30.583Z,94380.33
2018-07-22T08:52:00.479Z,94372.19
2018-07-22T08:54:30.247Z,94372.20
2018-07-22T08:57:00.663Z,94366.43
2018-07-22T08:59:30.194Z,94361.05
2018-07-22T09:01:59.638Z,94361.44
2018-07-22T09:04:29.374Z,94357.56
2018-07-22T09:06:59.342Z,94352.48
2018-07-22T09:09:28.902Z,94352.19
2018-07-22T09:11:58.847Z,94345.92
2018-07-22T09:14:28.763Z,94349.52
2018-07-22T09:16:58.962Z,94343.91
2018-07-22T09:19:28.808Z,94340.28
2018-07-22T09:21:58.777Z,94338.34
2018-07-22T09:24:28.791Z,94337.24
2018-07-22T09:26:58.655Z,94336.78
2018-07-22T09:29:28.299Z,94338.37
2018-07-22T09:31:57.788Z,94331.83
2018-07-22T09:34:27.407Z,94328.75
2018-07-22T09:36:57.501Z,94320.97
2018-07-22T09:39:27.239Z,94321.03
2018-07-22T09:41:57.476Z,94314.18
2018-07-22T09:44:27.238Z,94317.41
2018-07-22T09:46:57.499Z,94313.84
2018-07-22T09:49:27.301Z,94312.48
2018-07-22T09:51:56.953Z,94313.69
2018-07-22T09:54:26.655Z,94308.66
2018-07-22T09:56:56.539Z,94303.64
2018-07-22T09:59:27.028Z,94294.55
2018-07-22T10:01:56.812Z,94299.69
2018-07-22T10:04:26.490Z,94300.65
2018-07-22T10:06:56.122Z,94295.35
2018-07-22T10:09:26.579Z,94297.13
2018-07-22T10:11:56.404Z,94289.48
2018-07-22T10:14:26.211Z,94284.81
2018-07-22T10:16:55.827Z,94285.08
2018-07-22T10:19:25.480Z,94279.85
2018-07-22T10:21:55.473Z,94281.00
2018-07-22T10:24:25.183Z,94281.98
2018-07-22T10:26:54.849Z,94280.89
2018-07-22T10:29:24.883Z,94274.37
2018-07-22T10:31:54.630Z,94276.27
2018-07-22T10:34:24.531Z,94264.24
2018-07-22T10:36:55.177Z,94263.64
2018-07-22T10:39:24.720Z,94254.30
2018-07-22T10:41:54.375Z,94246.59
2018-07-22T10:44:23.951Z,94245.71
2018-07-22T10:46:54.581Z,94243.88
2018-07-22T10:49:24.536Z,94243.88
2018-07-22T10:51:54.213Z,94235.13
2018-07-22T10:54:23.970Z,94231.98
2018-07-22T10:56:53.675Z,94234.02
2018-07-22T10:59:23.930Z,94227.34
2018-07-22T11:01:53.969Z,94219.53
2018-07-22T11:04:25.070Z,94229.42
2018-07-22T11:06:55.400Z,94223.28
2018-07-22T11:09:25.011Z,94225.11
2018-07-22T11:11:54.965Z,94218.22
2018-07-22T11:14:24.806Z,94211.03
2018-07-22T11:16:54.874Z,94207.68
2018-07-22T11:19:24.604Z,94202.66
2018-07-22T11:21:54.385Z,94198.70
2018-07-22T11:24:24.357Z,94188.29
2018-07-22T11:26:53.897Z,94194.48
2018-07-22T11:29:23.429Z,94200.32
2018-07-22T11:31:52.948Z,94199.14
2018-07-22T11:34:22.561Z,94193.38
2018-07-22T11:36:52.189Z,94193.15
2018-07-22T11:39:22.790Z,94176.81
2018-07-22T11:41:52.531Z,94166.31
2018-07-22T11:44:22.200Z,94164.20
2018-07-22T11:46:51.895Z,94158.97
2018-07-22T11:49:22.155Z,94156.95
2018-07-22T11:51:51.927Z,94168.40
2018-07-22T11:54:21.802Z,94155.94
2018-07-22T11:56:51.590Z,94153.25
2018-07-22T11:59:21.184Z,94151.41
2018-07-22T12:01:51.058Z,94150.23
2018-07-22T12:04:20.803Z,94143.95
2018-07-22T12:06:50.543Z,94148.90
2018-07-22T12:09:20.371Z,94150.86
2018-07-22T12:11:50.059Z,94145.30
2018-07-22T12:14:21.882Z,94140.44
2018-07-22T12:16:51.794Z,94138.25
2018-07-22T12:19:21.635Z,94130.81
2018-07-22T12:21:51.251Z,94123.57
2018-07-22T12:24:20.703Z,94134.55
2018-07-22T12:26:50.289Z,94127.94
2018-07-22T12:29:19.978Z,94126.75
2018-07-22T12:31:49.731Z,94126.40
2018-07-22T12:34:19.633Z,94120.35
2018-07-22T12:36:49.708Z,94104.52
2018-07-22T12:39:19.497Z,94100.05
2018-07-22T12:41:49.367Z,94095.45
2018-07-22T12:44:19.331Z,94085.91
2018-07-22T12:46:49.293Z,94084.36
2018-07-22T12:49:19.003Z,94086.81
2018-07-22T12:51:49.007Z,94091.08
2018-07-22T12:54:18.892Z,94088.27
2018-07-22T12:56:48.555Z,94106.55
2018-07-22T12:59:18.710Z,94112.94
2018-07-22T13:01:48.283Z,94114.16
2018-07-22T13:04:17.974Z,94120.14
2018-07-22T13:06:47.627Z,94126.34
2018-07-22T13:09:17.562Z,94144.33
2018-07-22T13:11:47.222Z,94152.98
2018-07-22T13:14:16.882Z,94166.46
2018-07-22T13:16:46.516Z,94178.42
2018-07-22T13:19:16.036Z,94173.48
2018-07-22T13:21:45.650Z,94168.86
2018-07-22T13:24:15.449Z,94173.38
2018-07-22T13:26:45.420Z,94166.73
2018-07-22T13:29:14.931Z,94145.31
2018-07-22T13:31:44.730Z,94148.12
2018-07-22T13:34:14.248Z,94139.09
2018-07-22T13:36:43.836Z,94138.08
2018-07-22T13:39:13.516Z,94140.22
2018-07-22T13:41:43.274Z,94116.30
2018-07-22T13:44:13.247Z,94119.38
2018-07-22T13:46:43.048Z,94122.44
2018-07-22T13:49:13.094Z,94116.95
2018-07-22T13:51:43.014Z,94112.45
2018-07-22T13:54:13.051Z,94113.23
2018-07-22T13:56:42.921Z,94118.02
2018-07-22T13:59:12.661Z,94113.61
2018-07-22T14:01:42.427Z,94104.00
2018-07-22T14:04:12.238Z,94089.56
2018-07-22T14:06:42.010Z,94091.33
2018-07-22T14:09:12.673Z,94086.41
2018-07-22T14:11:42.434Z,94083.36
2018-07-22T14:14:12.351Z,94072.18
2018-07-22T14:16:42.026Z,94062.92
2018-07-22T14:19:11.938Z,94057.45
2018-07-22T14:21:41.549Z,94057.02
2018-07-22T14:24:11.561Z,94054.17
2018-07-22T14:26:41.532Z,94047.53
2018-07-22T14:29:11.152Z,94046.36
2018-07-22T14:31:40.852Z,94048.03
2018-07-22T14:34:10.737Z,94050.53
2018-07-22T14:36:40.257Z,94053.92
2018-07-22T14:39:12.261Z,94047.32
2018-07-22T14:41:42.362Z,94047.14
2018-07-22T14:44:12.215Z,94044.66
2018-07-22T14:46:42.192Z,94048.00
2018-07-22T14:49:12.186Z,94049.00
2018-07-22T14:51:41.975Z,94041.75
2018-07-22T14:54:11.858Z,94046.88
2018-07-22T14:56:41.499Z,94047.10
2018-07-22T14:59:11.326Z,94048.27
2018-07-22T15:01:41.270Z,94058.05
2018-07-22T15:04:11.089Z,94051.88
2018-07-22T15:06:40.646Z,94049.49
2018-07-22T15:09:10.500Z,94051.02
2018-07-22T15:11:40.001Z,94050.33
2018-07-22T15:14:10.606Z,94043.05
2018-07-22T15:16:40.373Z,94049.03
2018-07-22T15:19:10.155Z,94038.59
2018-07-22T15:21:39.942Z,94042.08
2018-07-22T15:24:09.516Z,94031.67
2018-07-22T15:26:39.457Z,94026.70
2018-07-22T15:29:09.317Z,94023.22
2018-07-22T15:31:38.967Z,94032.00
2018-07-22T15:34:08.834Z,94029.42
2018-07-22T15:36:38.610Z,94026.89
2018-07-22T15:39:10.889Z,94021.49
2018-07-22T15:41:41.443Z,94021.27
2018-07-22T15:44:11.426Z,94024.61
2018-07-22T15:46:40.896Z,94026.86
2018-07-22T15:49:10.453Z,94024.98
2018-07-22T15:51:40.366Z,94033.30
2018-07-22T15:54:10.150Z,94033.40
2018-07-22T15:56:39.791Z,93978.34
2018-07-22T15:59:09.766Z,94020.47
2018-07-22T16:01:39.459Z,94026.95
2018-07-22T16:04:09.372Z,94024.81
2018-07-22T16:06:39.266Z,94031.50
2018-07-22T16:09:10.965Z,94038.33
2018-07-22T16:11:41.327Z,94043.13
2018-07-22T16:14:11.742Z,94046.72
2018-07-22T16:16:41.537Z,94045.27
2018-07-22T16:19:11.082Z,94043.17
2018-07-22T16:21:40.625Z,94037.76
2018-07-22T16:24:10.522Z,94032.67
2018-07-22T16:26:40.526Z,94030.12
2018-07-22T16:29:10.354Z,94034.77
2018-07-22T16:31:40.065Z,94032.92
2018-07-22T16:34:10.219Z,94035.03
2018-07-22T16:36:40.187Z,94035.08
2018-07-22T16:39:10.562Z,94028.59
2018-07-22T16:41:40.578Z,94038.03
2018-07-22T16:44:10.711Z,94036.85
2018-07-22T16:46:40.382Z,94032.93
2018-07-22T16:49:10.473Z,94032.95
2018-07-22T16:51:40.034Z,94030.85
2018-07-22T16:54:09.782Z,94041.73
2018-07-22T16:56:39.817Z,94043.42
2018-07-22T16:59:09.630Z,94033.09
2018-07-22T17:01:39.610Z,94019.36
2018-07-22T17:04:09.387Z,94032.75
2018-07-22T17:06:39.152Z,94029.30
2018-07-22T17:09:10.400Z,94025.27
2018-07-22T17:11:40.170Z,94022.17
2018-07-22T17:14:09.751Z,94026.59
2018-07-22T17:16:39.378Z,94030.42
2018-07-22T17:19:09.076Z,94035.73
2018-07-22T17:21:38.890Z,94037.96
2018-07-22T17:24:08.512Z,94041.24
2018-07-22T17:26:38.046Z,94039.22
2018-07-22T17:29:08.030Z,94052.78
2018-07-22T17:31:37.802Z,94056.39
2018-07-22T17:34:07.856Z,94054.14
2018-07-22T17:36:37.804Z,94055.48
2018-07-22T17:39:10.039Z,94055.32
2018-07-22T17:41:40.488Z,94054.94
2018-07-22T17:44:10.349Z,94061.58
2018-07-22T17:46:40.164Z,94062.59
2018-07-22T17:49:10.194Z,94068.09
2018-07-22T17:51:39.930Z,94072.08
2018-07-22T17:54:09.735Z,94067.02
2018-07-22T17:56:39.452Z,94061.91
2018-07-22T17:59:08.996Z,94063.47
2018-07-22T18:01:38.653Z,94064.91
2018-07-22T18:04:08.543Z,94063.62
2018-07-22T18:06:38.306Z,94055.09
2018-07-22T18:09:09.475Z,94047.30
2018-07-22T18:11:39.514Z,94055.23
2018-07-22T18:14:09.159Z,94052.13
2018-07-22T18:16:38.770Z,94062.87
2018-07-22T18:19:08.519Z,94055.70
2018-07-22T18:21:38.312Z,94068.90
2018-07-22T18:24:07.895Z,94071.87
2018-07-22T18:26:37.674Z,94079.80
2018-07-22T18:29:07.647Z,94077.14
2018-07-22T18:31:37.278Z,94076.06
2018-07-22T18:34:06.894Z,94076.77
2018-07-22T18:36:36.535Z,94081.55
2018-07-22T18:39:08.596Z,94086.11
2018-07-22T18:41:38.387Z,94084.77
2018-07-22T18:44:08.098Z,94087.97
2018-07-22T18:46:37.876Z,94094.55
2018-07-22T18:49:07.768Z,94092.72
2018-07-22T18:51:37.470Z,94093.25
2018-07-22T18:54:08.021Z,94093.93
2018-07-22T18:56:37.992Z,94106.45
2018-07-22T18:59:07.630Z,94109.72
2018-07-22T19:01:37.606Z,94106.00
2018-07-22T19:04:07.461Z,94109.70
2018-07-22T19:06:37.153Z,94116.96
2018-07-22T19:09:08.640Z,94119.27
2018-07-22T19:11:38.445Z,94113.58
2018-07-22T19:14:08.509Z,94115.85
2018-07-22T19:16:38.175Z,94124.72
2018-07-22T19:19:07.991Z,94127.84
2018-07-22T19:21:37.782Z,94128.08
2018-07-22T19:24:07.638Z,94127.17
2018-07-22T19:26:37.741Z,94129.42
2018-07-22T19:29:07.567Z,94128.98
2018-07-22T19:31:37.486Z,94136.74
2018-07-22T19:34:07.499Z,94150.36
2018-07-22T19:36:37.343Z,94142.91
2018-07-22T19:39:07.874Z,94142.78
2018-07-22T19:41:37.681Z,94144.55
2018-07-22T19:44:07.672Z,94143.78
2018-07-22T19:46:37.578Z,94139.70
2018-07-22T19:49:07.303Z,94141.55
2018-07-22T19:51:37.250Z,94135.77
2018-07-22T19:54:07.052Z,94134.02
2018-07-22T19:56:37.309Z,94132.78
2018-07-22T19:59:07.114Z,94123.91
2018-07-22T20:01:41.767Z,94129.47
2018-07-22T20:04:13.211Z,94117.58
2018-07-22T20:06:43.690Z,94106.17
2018-07-22T20:09:14.347Z,94108.27
2018-07-22T20:11:44.591Z,94104.17
2018-07-22T20:14:14.295Z,94105.16
2018-07-22T20:16:43.867Z,94091.95
2018-07-22T20:19:13.492Z,93884.18
2018-07-22T20:21:43.334Z,94085.93
2018-07-22T20:24:13.124Z,94099.00
2018-07-22T20:26:42.649Z,94097.56
2018-07-22T20:29:12.589Z,94097.24
2018-07-22T20:31:42.222Z,94105.46
2018-07-22T20:34:11.887Z,94107.25
2018-07-22T20:36:41.720Z,94121.58
2018-07-22T20:39:12.191Z,94121.80
2018-07-22T20:41:42.292Z,94121.80
2018-07-22T20:44:12.071Z,94129.80
2018-07-22T20:46:41.767Z,94128.45
2018-07-22T20:49:11.323Z,94140.31
2018-07-22T20:51:41.415Z,94138.10
2018-07-22T20:54:11.644Z,94138.94
2018-07-22T20:56:41.605Z,94140.08
2018-07-22T20:59:11.407Z,94142.73
2018-07-22T21:01:41.326Z,94140.75
2018-07-22T21:04:11.305Z,94148.92
2018-07-22T21:06:41.205Z,94155.12
2018-07-22T21:09:10.943Z,94156.03
2018-07-22T21:11:51.577Z,94162.87
2018-07-22T21:14:21.415Z,94160.57
2018-07-22T21:16:51.417Z,94163.15
2018-07-22T21:19:21.051Z,94148.27
2018-07-22T21:21:50.627Z,94156.27
2018-07-22T21:24:20.238Z,94159.71
2018-07-22T21:26:50.302Z,94163.70
2018-07-22T21:29:19.918Z,94165.92
2018-07-22T21:31:49.647Z,94172.92
2018-07-22T21:34:19.348Z,94176.67
2018-07-22T21:36:49.446Z,94183.59
2018-07-22T21:39:19.245Z,94179.48
2018-07-22T21:41:48.956Z,94188.69
2018-07-22T21:44:18.744Z,94192.72
2018-07-22T21:46:48.517Z,94197.80
2018-07-22T21:49:18.440Z,94193.44
2018-07-22T21:51:47.990Z,94198.19
2018-07-22T21:54:17.562Z,94201.50
2018-07-22T21:56:47.139Z,94201.13
2018-07-22T21:59:16.923Z,94200.87
2018-07-22T22:01:46.597Z,94192.78
2018-07-22T22:04:16.286Z,93944.02
2018-07-22T22:06:46.144Z,94191.72
2018-07-22T22:09:15.898Z,94185.55
2018-07-22T22:11:45.839Z,94187.15
2018-07-22T22:14:15.783Z,94185.90
2018-07-22T22:16:45.770Z,94197.78
2018-07-22T22:19:15.895Z,94204.19
2018-07-22T22:21:45.878Z,94212.64
2018-07-22T22:24:15.530Z,94210.16
2018-07-22T22:26:45.156Z,94219.33
2018-07-22T22:29:14.676Z,94210.88
2018-07-22T22:31:44.261Z,94209.75
2018-07-22T22:34:14.022Z,94213.69
2018-07-22T22:36:43.902Z,94216.50
2018-07-22T22:39:14.369Z,94211.41
2018-07-22T22:41:44.259Z,94209.47
2018-07-22T22:44:14.207Z,94219.09
2018-07-22T22:46:43.927Z,94209.35
2018-07-22T22:49:13.802Z,94194.69
2018-07-22T22:51:43.810Z,94196.92
2018-07-22T22:54:13.930Z,94186.05
2018-07-22T22:56:43.849Z,94184.02
2018-07-22T22:59:20.424Z,94183.04
2018-07-22T23:01:50.670Z,94191.68
2018-07-22T23:04:20.237Z,94198.48
2018-07-22T23:06:49.787Z,94200.35
2018-07-22T23:09:19.316Z,94200.17
2018-07-22T23:11:48.926Z,94187.07
2018-07-22T23:14:18.554Z,94190.24
2018-07-22T23:16:48.435Z,94185.44
2018-07-22T23:19:18.255Z,94178.63
2018-07-22T23:21:47.796Z,94175.90
2018-07-22T23:24:17.353Z,94171.14
2018-07-22T23:26:47.077Z,94166.39
2018-07-22T23:29:16.920Z,94167.04
2018-07-22T23:31:46.690Z,94164.47
2018-07-22T23:34:16.420Z,94169.06
2018-07-22T23:36:46.168Z,94168.42
2018-07-22T23:39:15.773Z,94172.35
2018-07-22T23:41:45.326Z,94168.34
2018-07-22T23:44:15.260Z,94168.45
2018-07-22T23:46:45.223Z,94166.31
2018-07-22T23:49:15.046Z,94169.81
2018-07-22T23:51:44.860Z,94164.60
2018-07-22T23:54:14.808Z,94159.30
2018-07-22T23:56:44.628Z,94154.68
2018-07-22T23:59:14.297Z,94148.39
